Date,TemperatureHighF,TemperatureAvgF,TemperatureLowF,DewpointHighF,DewpointAvgF,DewpointLowF,HumidityHigh,HumidityAvg,HumidityLow,PressureMaxIn,PressureMinIn,WindSpeedMaxMPH,WindSpeedAvgMPH,GustSpeedMaxMPH,PrecipitationSumIn
2013-7-1,80.4,69.7,60.4,64.6,60.1,54.7,89,73,55,30.01,29.90,3,0,3,0.00
2013-7-2,80.2,67.1,55.2,61.5,56.8,51.1,89,71,48,30.05,29.96,5,0,5,0.00
2013-7-3,83.7,68.1,55.2,64.2,58.0,51.6,90,72,47,30.08,29.92,12,0,12,0.63
2013-7-4,84.4,69.9,58.1,66.2,60.9,54.9,92,75,50,30.04,29.91,6,0,6,0.00
2013-7-5,87.3,73.6,59.0,67.5,62.1,55.4,90,69,48,30.00,29.86,5,0,5,0.00
2013-7-6,89.1,77.1,65.5,69.4,65.3,60.4,86,68,49,30.00,29.83,5,0,5,0.00
2013-7-7,91.9,79.7,68.0,71.6,67.3,62.4,85,67,46,29.99,29.88,10,0,10,0.00
2013-7-8,91.6,79.3,69.1,74.5,69.5,63.7,86,73,54,30.04,29.92,3,0,3,0.00
2013-7-9,94.5,82.5,70.7,75.7,71.5,66.2,87,71,52,30.00,29.85,13,1,13,0.00
2013-7-10,90.9,80.5,69.8,78.3,72.9,65.5,91,79,62,29.99,29.83,10,-352,10,1.30
2013-7-11,88.7,79.9,72.5,73.8,69.3,63.0,90,71,48,29.99,29.88,4,-3,4,0.00
2013-7-12,89.1,76.5,67.3,66.6,62.3,59.0,76,63,41,30.02,29.88,5,1,5,0.00
2013-7-13,82.6,73.8,63.0,66.4,61.7,56.5,80,66,51,30.04,29.94,5,0,5,0.00
2013-7-14,86.9,75.5,62.6,65.8,62.3,57.6,87,65,44,30.03,29.93,5,1,6,0.00
2013-7-15,87.3,77.8,70.5,72.1,68.2,62.4,88,73,58,30.13,30.01,13,1,13,0.19
2013-7-16,86.5,76.5,69.8,75.9,71.3,66.7,93,85,64,30.24,30.12,4,0,4,0.19
2013-7-17,90.3,78.4,69.1,76.5,71.8,66.4,93,81,63,30.30,30.12,4,0,4,0.03
2013-7-18,94.5,81.6,69.4,76.5,71.3,65.8,90,72,53,30.15,29.93,3,-218,3,0.00
2013-7-19,93.0,80.0,70.3,76.3,70.8,66.0,88,74,56,29.98,29.83,5,0,5,0.00
2013-7-20,88.0,77.2,70.7,75.6,69.8,66.7,91,79,63,29.94,29.77,19,0,19,1.11
2013-7-21,80.4,74.3,70.2,75.0,70.8,68.0,94,89,81,29.90,29.76,0,0,0,0.11
2013-7-22,84.4,76.4,66.7,73.4,70.2,63.7,93,82,66,29.87,29.75,15,1,15,0.24
2013-7-23,93.7,81.1,69.8,80.2,73.2,65.8,90,78,60,29.83,29.70,13,1,13,0.08
2013-7-24,85.1,76.6,70.3,73.6,69.2,63.1,89,78,57,30.00,29.81,4,0,4,0.00
2013-7-25,85.5,74.0,62.2,70.5,64.8,59.0,90,74,58,30.04,29.97,3,0,3,0.00
2013-7-26,73.8,69.6,66.2,67.8,65.7,64.0,93,87,74,30.01,29.93,1,0,1,1.74
2013-7-27,70.0,66.5,64.8,64.9,64.2,63.0,94,92,83,30.05,29.94,7,0,7,0.03
2013-7-28,70.7,68.3,67.3,64.0,63.2,62.8,86,84,79,30.05,30.01,0,0,0,0.00
2013-7-29,82.8,73.5,66.2,73.8,68.1,62.6,90,83,73,30.09,29.92,4,-362,4,0.17
2013-7-30,80.2,74.4,70.0,76.1,71.7,67.8,95,91,86,30.01,29.86,8,-104,8,2.44
2013-7-31,85.5,76.8,70.7,75.9,72.2,66.9,95,86,70,30.02,29.90,0,0,0,0.00